Malaysia Virtual Airlines Airport Information Service

Heydar Aliyev International Airport

ICAO: UBBB Country: Azerbaijan
Latitude: 40.4608 Longitude: 50.0515
Latest Arrival : MK6123A (EHAM-UBBB) Latest Departure : MK6121B (UBBB-WSSS)


WX CaptureLIVE
Data provided by noaa.gov | Fetched at 20:36:52

METAR : UBBB 122000Z 31004KT CAVOK 12/10 Q1015 R88/CLRD// NOSIG

TAF : UBBB 121721Z 1218/1318 31005KT CAVOK TX22/1310Z TN10/1301Z TEMPO 1218/1221 VRB04KT FEW010 TEMPO 1221/1302 VRB04KT 3000 BR FEW007 BECMG 1305/1307 18010KT TEMPO 1307/1318 21010KT SCT015


Runway Data for UBBB
Data provided by openaviationdata.com

Runway ID Mag Var Hdg Length Elevation Surface ILS Freq ILS Id ILS Slope
16 5 154° 8868 ft 10 ft Asphalt 109.5 IBI 3
18 5 174° 10500 ft 10 ft Concrete 110.5 IBU 3
34 5 334° 8868 ft 10 ft Asphalt 111.7 IBN 3
36 5 354° 10500 ft 10 ft Concrete 109.3 IBA 3

Heydar Aliyev International Airport, Azerbaijan
Use only for reference purposes



Not for navigational purposes.